Sturgis, MI

12:07 PM EST on November 23, 2017 (GMT -0500)
Kirsch Municipal

Weather History for KIRS - November, 2011

Change the Weather History Date:

Sunday, November 20, 2011

  Actual Average (KHAI) Record (KHAI)
Temperature  
Mean Temperature 47 °F -  
Max Temperature 57 °F 46 °F 67 °F (1985)
Min Temperature 37 °F 29 °F 15 °F (1951)
Degree Days  
Heating Degree Days 18    
Moisture  
Dew Point 39 °F    
Average Humidity 75    
Maximum Humidity 82    
Minimum Humidity 62    
Precipitation  
Precipitation 0.00 in - - ()
Sea Level Pressure  
Sea Level Pressure 30.12 in    
Wind  
Wind Speed 12 mph (NW)    
Max Wind Speed 23 mph    
Max Gust Speed 36 mph    
Visibility 10 miles    
Events      
Averages and records for this station are not official NWS values.
T = Trace of Precipitation, MM = Missing Value Source: NWS Daily Summary

Daily Weather History Graph

Daily Weather History Graph

Search for Another Location

Airport or City:

Trip Planner

Search our weather history database for the weather conditions in past years. The results will help you decide how hot, cold, wet, or windy it might be!

Date:

Astronomy

Nov. 20, 2011 Rise Set
Actual Time 7:36 AM EST 5:17 PM EST
Civil Twilight 7:06 AM EST 5:47 PM EST
Nautical Twilight 6:32 AM EST 6:21 PM EST
Astronomical Twilight 5:59 AM EST 6:54 PM EST
Moon 2:00 AM EST (11/20) 2:09 PM EST (11/20)
Length of Visible Light 10h 41m
Length of Day
9h 40m
Waning Crescent, 27% of the Moon is Illuminated
Nov 20
Waning Crescent
Nov 25
New
Dec 2
First Quarter
Dec 10
Full
Dec 17
Last Quarter

Hourly Weather History & Observations

Time (EST) Temp. Windchill Dew Point Humidity Pressure Visibility Wind Dir Wind Speed Gust Speed Precip Events Conditions
12:14 AM 55.4 °F - 48.2 °F 77% 29.84 in 10.0 mi SW 23.0 mph 29.9 mph N/A   Overcast
12:35 AM 55.4 °F - 48.2 °F 77% 29.85 in 10.0 mi SW 16.1 mph 25.3 mph N/A   Overcast
1:14 AM 55.4 °F - 48.2 °F 77% 29.86 in 10.0 mi WSW 15.0 mph 21.9 mph N/A   Overcast
1:35 AM 55.4 °F - 50.0 °F 82% 29.87 in 10.0 mi SW 12.7 mph 18.4 mph N/A   Overcast
1:55 AM 55.4 °F - 50.0 °F 82% 29.87 in 10.0 mi WSW 11.5 mph - N/A   Overcast
2:14 AM 57.2 °F - 51.8 °F 82% 29.87 in 10.0 mi WSW 10.4 mph 17.3 mph N/A   Overcast
2:35 AM 57.2 °F - 51.8 °F 82% 29.89 in 10.0 mi WSW 20.7 mph 35.7 mph N/A   Overcast
2:54 AM 57.2 °F - 51.8 °F 82% 29.90 in 10.0 mi West 17.3 mph 31.1 mph N/A   Overcast
3:15 AM 57.2 °F - 51.8 °F 82% 29.91 in 10.0 mi WSW 18.4 mph 27.6 mph N/A   Overcast
3:35 AM 57.2 °F - 51.8 °F 82% 29.92 in 10.0 mi WSW 18.4 mph 25.3 mph N/A   Overcast
3:55 AM 57.2 °F - 51.8 °F 82% 29.92 in 10.0 mi West 17.3 mph - N/A   Overcast
4:15 AM 57.2 °F - 51.8 °F 82% 29.93 in 10.0 mi West 16.1 mph 25.3 mph N/A   Overcast
4:34 AM 55.4 °F - 48.2 °F 77% 29.94 in 10.0 mi West 13.8 mph 28.8 mph N/A   Overcast
4:55 AM 55.4 °F - 48.2 °F 77% 29.96 in 10.0 mi West 11.5 mph 19.6 mph N/A   Overcast
5:15 AM 53.6 °F - 46.4 °F 77% 29.98 in 10.0 mi West 20.7 mph 29.9 mph N/A   Mostly Cloudy
5:34 AM 51.8 °F - 44.6 °F 76% 29.99 in 10.0 mi WNW 16.1 mph 23.0 mph N/A   Mostly Cloudy
5:55 AM 50.0 °F - 44.6 °F 82% 30.01 in 10.0 mi WNW 11.5 mph 20.7 mph N/A   Overcast
6:55 AM 46.4 °F 41.5 °F 39.2 °F 76% 30.07 in 10.0 mi WNW 10.4 mph 19.6 mph N/A   Overcast
7:15 AM 46.4 °F 41.1 °F 39.2 °F 76% 30.08 in 10.0 mi WNW 11.5 mph 16.1 mph N/A   Overcast
7:55 AM 44.6 °F 39.2 °F 37.4 °F 76% 30.10 in 10.0 mi NNW 10.4 mph 17.3 mph N/A   Overcast
8:15 AM 42.8 °F 37.0 °F 37.4 °F 81% 30.11 in 10.0 mi NW 10.4 mph - N/A   Mostly Cloudy
8:34 AM 42.8 °F 37.5 °F 37.4 °F 81% 30.12 in 10.0 mi NW 9.2 mph - N/A   Scattered Clouds
9:15 AM 44.6 °F 43.1 °F 37.4 °F 76% 30.14 in 10.0 mi WNW 3.5 mph - N/A   Scattered Clouds
9:35 AM 44.6 °F 40.7 °F 37.4 °F 76% 30.14 in 10.0 mi NW 6.9 mph - N/A   Overcast
9:55 AM 44.6 °F 43.1 °F 37.4 °F 76% 30.15 in 10.0 mi NW 3.5 mph - N/A   Mostly Cloudy
10:15 AM 44.6 °F 42.2 °F 37.4 °F 76% 30.17 in 10.0 mi West 4.6 mph - N/A   Scattered Clouds
10:35 AM 44.6 °F 42.2 °F 37.4 °F 76% 30.17 in 10.0 mi West 4.6 mph - N/A   Overcast
10:55 AM 44.6 °F 42.2 °F 37.4 °F 76% 30.17 in 10.0 mi West 4.6 mph - N/A   Mostly Cloudy
11:15 AM 44.6 °F 43.1 °F 37.4 °F 76% 30.18 in 10.0 mi WNW 3.5 mph - N/A   Mostly Cloudy
11:35 AM 46.4 °F - 35.6 °F 66% 30.19 in 10.0 mi Calm Calm - N/A   Mostly Cloudy
11:55 AM 44.6 °F 42.2 °F 35.6 °F 71% 30.19 in 10.0 mi WNW 4.6 mph - N/A   Overcast
12:15 PM 46.4 °F - 35.6 °F 66% 30.18 in 10.0 mi Calm Calm - N/A   Overcast
12:34 PM 46.4 °F 42.9 °F 33.8 °F 62% 30.17 in 10.0 mi NW 6.9 mph - N/A   Mostly Cloudy
1:14 PM 46.4 °F 42.4 °F 33.8 °F 62% 30.18 in 10.0 mi North 8.1 mph - N/A   Scattered Clouds
1:55 PM 46.4 °F 42.4 °F 35.6 °F 66% 30.18 in 10.0 mi North 8.1 mph - N/A   Scattered Clouds
2:14 PM 46.4 °F 42.9 °F 33.8 °F 62% 30.18 in 10.0 mi NNW 6.9 mph - N/A   Scattered Clouds
2:35 PM 46.4 °F 41.5 °F 33.8 °F 62% 30.18 in 10.0 mi North 10.4 mph - N/A   Scattered Clouds
2:54 PM 44.6 °F 38.8 °F 33.8 °F 66% 30.18 in 10.0 mi NNW 11.5 mph - N/A   Mostly Cloudy
3:15 PM 44.6 °F 40.7 °F 33.8 °F 66% 30.20 in 10.0 mi North 6.9 mph - N/A   Mostly Cloudy
3:34 PM 44.6 °F 39.2 °F 33.8 °F 66% 30.20 in 10.0 mi North 10.4 mph - N/A   Mostly Cloudy
3:55 PM 44.6 °F 40.2 °F 33.8 °F 66% 30.21 in 10.0 mi North 8.1 mph - N/A   Overcast
4:15 PM 42.8 °F 38.0 °F 33.8 °F 70% 30.21 in 10.0 mi North 8.1 mph - N/A   Mostly Cloudy
4:35 PM 42.8 °F 38.0 °F 33.8 °F 70% 30.21 in 10.0 mi North 8.1 mph - N/A   Clear
4:55 PM 42.8 °F 38.0 °F 33.8 °F 70% 30.22 in 10.0 mi North 8.1 mph - N/A   Clear
5:14 PM 42.8 °F 38.6 °F 33.8 °F 70% 30.22 in 10.0 mi North 6.9 mph - N/A   Clear
5:35 PM 42.8 °F 38.0 °F 33.8 °F 70% 30.24 in 10.0 mi North 8.1 mph - N/A   Clear
5:55 PM 41.0 °F 35.8 °F 33.8 °F 76% 30.25 in 10.0 mi North 8.1 mph - N/A   Clear
6:15 PM 41.0 °F 37.1 °F 33.8 °F 76% 30.26 in 10.0 mi North 5.8 mph - N/A   Clear
6:35 PM 39.2 °F 33.0 °F 33.8 °F 81% 30.26 in 10.0 mi North 9.2 mph - N/A   Clear
6:54 PM 39.2 °F 33.6 °F 33.8 °F 81% 30.27 in 10.0 mi North 8.1 mph - N/A   Clear
7:15 PM 39.2 °F 33.0 °F 33.8 °F 81% 30.28 in 10.0 mi North 9.2 mph - N/A   Scattered Clouds
7:35 PM 39.2 °F 34.2 °F 32.0 °F 75% 30.29 in 10.0 mi North 6.9 mph - N/A   Scattered Clouds
7:55 PM 39.2 °F 33.0 °F 33.8 °F 81% 30.28 in 10.0 mi North 9.2 mph - N/A   Scattered Clouds
8:34 PM 39.2 °F 34.2 °F 32.0 °F 75% 30.28 in 10.0 mi NNE 6.9 mph - N/A   Scattered Clouds
8:55 PM 39.2 °F 32.5 °F 33.8 °F 81% 30.27 in 10.0 mi ENE 10.4 mph 16.1 mph N/A   Mostly Cloudy
9:14 PM 37.4 °F 32.1 °F 32.0 °F 81% 30.30 in 10.0 mi NE 6.9 mph - N/A   Mostly Cloudy
9:35 PM 37.4 °F 32.8 °F 32.0 °F 81% 30.29 in 10.0 mi ENE 5.8 mph - N/A   Clear
9:49 PM 37.4 °F 30.8 °F 30.2 °F 75% 30.27 in 10.0 mi ENE 9.2 mph - N/A   Clear
10:14 PM 37.4 °F 31.4 °F 30.2 °F 75% 30.27 in 10.0 mi NE 8.1 mph - N/A   Scattered Clouds
10:34 PM 37.4 °F 30.8 °F 32.0 °F 81% 30.26 in 10.0 mi NE 9.2 mph - N/A   Scattered Clouds
10:54 PM 37.4 °F 30.3 °F 32.0 °F 81% 30.27 in 10.0 mi NE 10.4 mph - N/A   Scattered Clouds
11:14 PM 37.4 °F 30.8 °F 30.2 °F 75% 30.27 in 10.0 mi NNE 9.2 mph - N/A   Clear
11:34 PM 37.4 °F 31.4 °F 32.0 °F 81% - 10.0 mi NE 8.1 mph - N/A   Scattered Clouds
11:55 PM 37.4 °F 30.8 °F 30.2 °F 75% 30.28 in 10.0 mi NE 9.2 mph - N/A   Scattered Clouds